<?xml version="1.0" encoding="UTF-8" standalone="no" ?>
<gpx xmlns="http://www.topografix.com/GPX/1/1" xmlns:xsi="http://www.w3.org/2001/XMLSchema-instance" xsi:schemaLocation="http://www.topografix.com/GPX/1/1 http://www.topografix.com/GPX/1/1/gpx.xsd" version="1.1" creator="VisuGPX - https://www.visugpx.com">
  <metadata>
    <name>GR54 - Etape 1 - Bourg d'Oisans - Besse</name>
    <desc><![CDATA[Randonnée sur le GR®54 Isère et Hautes-Alpes, Tour des massifs de l'Oisans et des Ecrins, depuis Bourg-d'Oisans. Gîtes d'étapes, Chambres d'hôtes, Maison d'hôtes, Hôtels, Camping, Refuges, Auberges.

Randonnée sur le GR®54 Isère et Hautes-Alpes, Tour des massifs de l'Oisans et des Ecrins, depuis Bourg-d'Oisans. Gîtes d'étapes, Chambres d'hôtes, Maison d'hôtes, Hôtels, Camping, Refuges, Auberges.]]></desc>
  </metadata>
  <trk>
    <name><![CDATA[GR®54 Tour des massifs de l'Oisans et des Ecrins (Isère, Hautes-Alpes) (2021)]]></name>
    <cmt><![CDATA[Randonnée sur le GR®54 Isère et Hautes-Alpes, Tour des massifs de l'Oisans et des Ecrins, depuis Bourg-d'Oisans. Gîtes d'étapes, Chambres d'hôtes, Maison d'hôtes, Hôtels, Camping, Refuges, Auberges.]]></cmt>
    <desc><![CDATA[Randonnée sur le GR®54 Isère et Hautes-Alpes, Tour des massifs de l'Oisans et des Ecrins, depuis Bourg-d'Oisans. Gîtes d'étapes, Chambres d'hôtes, Maison d'hôtes, Hôtels, Camping, Refuges, Auberges.]]></desc>
    <trkseg>
      <trkpt lat="45.05481" lon="6.03218">
        <ele>719.021</ele>
        <time>2020-04-05T10:37:50Z</time>
      </trkpt>
      <trkpt lat="45.05512" lon="6.03277">
        <ele>718.003</ele>
        <time>2020-04-05T10:38:10Z</time>
      </trkpt>
      <trkpt lat="45.05815" lon="6.03621">
        <ele>715.408</ele>
        <time>2020-04-05T10:38:30Z</time>
      </trkpt>
      <trkpt lat="45.05918" lon="6.03785">
        <ele>716.057</ele>
        <time>2020-04-05T10:38:50Z</time>
      </trkpt>
      <trkpt lat="45.06013" lon="6.03776">
        <ele>716.095</ele>
        <time>2020-04-05T10:39:10Z</time>
      </trkpt>
      <trkpt lat="45.06163" lon="6.03733">
        <ele>717.083</ele>
        <time>2020-04-05T10:39:30Z</time>
      </trkpt>
      <trkpt lat="45.06235" lon="6.037">
        <ele>717.057</ele>
        <time>2020-04-05T10:39:50Z</time>
      </trkpt>
      <trkpt lat="45.06289" lon="6.03707">
        <ele>718.068</ele>
        <time>2020-04-05T10:40:10Z</time>
      </trkpt>
      <trkpt lat="45.06425" lon="6.03898">
        <ele>721.315</ele>
        <time>2020-04-05T10:40:30Z</time>
      </trkpt>
      <trkpt lat="45.06512" lon="6.04014">
        <ele>735.399</ele>
        <time>2021-01-20T14:10:55Z</time>
      </trkpt>
      <trkpt lat="45.06681" lon="6.03954">
        <ele>745.946</ele>
        <time>2021-01-20T14:11:15Z</time>
      </trkpt>
      <trkpt lat="45.06774" lon="6.03948">
        <ele>762.665</ele>
        <time>2021-01-20T14:11:35Z</time>
      </trkpt>
      <trkpt lat="45.06788" lon="6.0394">
        <ele>761.668</ele>
        <time>2021-01-20T14:11:55Z</time>
      </trkpt>
      <trkpt lat="45.06805" lon="6.03956">
        <ele>771.414</ele>
        <time>2021-01-20T14:12:15Z</time>
      </trkpt>
      <trkpt lat="45.0684" lon="6.03948">
        <ele>774.808</ele>
        <time>2021-01-20T14:12:35Z</time>
      </trkpt>
      <trkpt lat="45.06874" lon="6.03956">
        <ele>785.992</ele>
        <time>2021-01-20T14:12:55Z</time>
      </trkpt>
      <trkpt lat="45.06874" lon="6.0398">
        <ele>796.09</ele>
        <time>2021-01-20T14:13:15Z</time>
      </trkpt>
      <trkpt lat="45.06887" lon="6.04024">
        <ele>820.288</ele>
        <time>2021-01-20T14:13:35Z</time>
      </trkpt>
      <trkpt lat="45.069" lon="6.04045">
        <ele>833.622</ele>
        <time>2021-01-20T14:13:55Z</time>
      </trkpt>
      <trkpt lat="45.06898" lon="6.04057">
        <ele>839.073</ele>
        <time>2021-01-20T14:14:15Z</time>
      </trkpt>
      <trkpt lat="45.06878" lon="6.04069">
        <ele>842.71</ele>
        <time>2021-01-20T14:14:35Z</time>
      </trkpt>
      <trkpt lat="45.0691" lon="6.04088">
        <ele>857.484</ele>
        <time>2021-01-20T14:14:55Z</time>
      </trkpt>
      <trkpt lat="45.06879" lon="6.04094">
        <ele>856.831</ele>
        <time>2021-01-20T14:15:15Z</time>
      </trkpt>
      <trkpt lat="45.06874" lon="6.04108">
        <ele>864.312</ele>
        <time>2021-01-20T14:15:35Z</time>
      </trkpt>
      <trkpt lat="45.06881" lon="6.04115">
        <ele>869.232</ele>
        <time>2021-01-20T14:15:55Z</time>
      </trkpt>
      <trkpt lat="45.06846" lon="6.04125">
        <ele>868.605</ele>
        <time>2021-01-20T14:16:15Z</time>
      </trkpt>
      <trkpt lat="45.06823" lon="6.04156">
        <ele>880.208</ele>
        <time>2021-01-20T14:16:35Z</time>
      </trkpt>
      <trkpt lat="45.06797" lon="6.04181">
        <ele>891.747</ele>
        <time>2021-01-20T14:16:55Z</time>
      </trkpt>
      <trkpt lat="45.06866" lon="6.04199">
        <ele>919.985</ele>
        <time>2021-01-20T14:17:15Z</time>
      </trkpt>
      <trkpt lat="45.06866" lon="6.04209">
        <ele>926.793</ele>
        <time>2021-01-20T14:17:35Z</time>
      </trkpt>
      <trkpt lat="45.06853" lon="6.0421">
        <ele>924.757</ele>
        <time>2021-01-20T14:17:55Z</time>
      </trkpt>
      <trkpt lat="45.06816" lon="6.0423">
        <ele>930.258</ele>
        <time>2021-01-20T14:18:15Z</time>
      </trkpt>
      <trkpt lat="45.0679" lon="6.04226">
        <ele>920.065</ele>
        <time>2021-01-20T14:18:35Z</time>
      </trkpt>
      <trkpt lat="45.0676" lon="6.04242">
        <ele>921.129</ele>
        <time>2021-01-20T14:18:55Z</time>
      </trkpt>
      <trkpt lat="45.06758" lon="6.0427">
        <ele>935.446</ele>
        <time>2021-01-20T14:19:15Z</time>
      </trkpt>
      <trkpt lat="45.06734" lon="6.0431">
        <ele>949.221</ele>
        <time>2021-01-20T14:19:35Z</time>
      </trkpt>
      <trkpt lat="45.06706" lon="6.04341">
        <ele>952.541</ele>
        <time>2021-01-20T14:19:55Z</time>
      </trkpt>
      <trkpt lat="45.06702" lon="6.04378">
        <ele>958.205</ele>
        <time>2021-01-20T14:20:15Z</time>
      </trkpt>
      <trkpt lat="45.06718" lon="6.04389">
        <ele>965.508</ele>
        <time>2021-01-20T14:20:35Z</time>
      </trkpt>
      <trkpt lat="45.06734" lon="6.04411">
        <ele>974.378</ele>
        <time>2021-01-20T14:20:55Z</time>
      </trkpt>
      <trkpt lat="45.06734" lon="6.04434">
        <ele>972.896</ele>
        <time>2021-01-20T14:21:15Z</time>
      </trkpt>
      <trkpt lat="45.06758" lon="6.04479">
        <ele>972.344</ele>
        <time>2021-01-20T14:21:35Z</time>
      </trkpt>
      <trkpt lat="45.0681" lon="6.04494">
        <ele>977.938</ele>
        <time>2021-01-20T14:21:55Z</time>
      </trkpt>
      <trkpt lat="45.06834" lon="6.04529">
        <ele>974.649</ele>
        <time>2021-01-20T14:22:15Z</time>
      </trkpt>
      <trkpt lat="45.06859" lon="6.04578">
        <ele>970.236</ele>
        <time>2021-01-20T14:22:35Z</time>
      </trkpt>
      <trkpt lat="45.06946" lon="6.04638">
        <ele>974.36</ele>
        <time>2021-01-20T14:22:55Z</time>
      </trkpt>
      <trkpt lat="45.06969" lon="6.04667">
        <ele>974.347</ele>
        <time>2021-01-20T14:23:15Z</time>
      </trkpt>
      <trkpt lat="45.07011" lon="6.04777">
        <ele>970.553</ele>
        <time>2021-01-20T14:23:35Z</time>
      </trkpt>
      <trkpt lat="45.07027" lon="6.04842">
        <ele>967.204</ele>
        <time>2021-01-20T14:23:55Z</time>
      </trkpt>
      <trkpt lat="45.07067" lon="6.04842">
        <ele>980.414</ele>
        <time>2021-01-20T14:24:15Z</time>
      </trkpt>
      <trkpt lat="45.07073" lon="6.04862">
        <ele>982.308</ele>
        <time>2021-01-20T14:24:35Z</time>
      </trkpt>
      <trkpt lat="45.07066" lon="6.04882">
        <ele>979.411</ele>
        <time>2021-01-20T14:24:55Z</time>
      </trkpt>
      <trkpt lat="45.07039" lon="6.04906">
        <ele>967.979</ele>
        <time>2021-01-20T14:25:15Z</time>
      </trkpt>
      <trkpt lat="45.07039" lon="6.04956">
        <ele>968.797</ele>
        <time>2021-01-20T14:25:35Z</time>
      </trkpt>
      <trkpt lat="45.07065" lon="6.05048">
        <ele>985.531</ele>
        <time>2021-01-20T14:25:55Z</time>
      </trkpt>
      <trkpt lat="45.07028" lon="6.05117">
        <ele>974.412</ele>
        <time>2021-01-20T14:26:15Z</time>
      </trkpt>
      <trkpt lat="45.07008" lon="6.05131">
        <ele>967.339</ele>
        <time>2021-01-20T14:26:35Z</time>
      </trkpt>
      <trkpt lat="45.06991" lon="6.05123">
        <ele>965.223</ele>
        <time>2021-01-20T14:26:55Z</time>
      </trkpt>
      <trkpt lat="45.06998" lon="6.05088">
        <ele>958.26</ele>
        <time>2021-01-20T14:27:15Z</time>
      </trkpt>
      <trkpt lat="45.06983" lon="6.05052">
        <ele>958.788</ele>
        <time>2021-01-20T14:27:35Z</time>
      </trkpt>
      <trkpt lat="45.06913" lon="6.05004">
        <ele>963.824</ele>
        <time>2021-01-20T14:27:55Z</time>
      </trkpt>
      <trkpt lat="45.06864" lon="6.0499">
        <ele>976.326</ele>
        <time>2021-01-20T14:28:15Z</time>
      </trkpt>
      <trkpt lat="45.06833" lon="6.04947">
        <ele>978.108</ele>
        <time>2021-01-20T14:28:35Z</time>
      </trkpt>
      <trkpt lat="45.06685" lon="6.04846">
        <ele>997.834</ele>
        <time>2020-04-05T10:51:30Z</time>
      </trkpt>
      <trkpt lat="45.06655" lon="6.04896">
        <ele>1015.622</ele>
        <time>2020-04-05T10:51:50Z</time>
      </trkpt>
      <trkpt lat="45.06678" lon="6.04979">
        <ele>1027.48</ele>
        <time>2020-04-05T10:52:10Z</time>
      </trkpt>
      <trkpt lat="45.06711" lon="6.05128">
        <ele>1046.994</ele>
        <time>2020-04-05T10:52:30Z</time>
      </trkpt>
      <trkpt lat="45.06699" lon="6.05292">
        <ele>1087.345</ele>
        <time>2020-04-05T10:52:50Z</time>
      </trkpt>
      <trkpt lat="45.06677" lon="6.05311">
        <ele>1108.132</ele>
        <time>2020-04-05T10:53:10Z</time>
      </trkpt>
      <trkpt lat="45.06656" lon="6.05244">
        <ele>1110.976</ele>
        <time>2020-04-05T10:53:30Z</time>
      </trkpt>
      <trkpt lat="45.06635" lon="6.05227">
        <ele>1118.133</ele>
        <time>2020-04-05T10:53:50Z</time>
      </trkpt>
      <trkpt lat="45.06612" lon="6.05189">
        <ele>1122.912</ele>
        <time>2020-04-05T10:54:10Z</time>
      </trkpt>
      <trkpt lat="45.06596" lon="6.05174">
        <ele>1128.232</ele>
        <time>2020-04-05T10:54:30Z</time>
      </trkpt>
      <trkpt lat="45.06551" lon="6.05136">
        <ele>1138.205</ele>
        <time>2020-04-05T10:54:50Z</time>
      </trkpt>
      <trkpt lat="45.0653" lon="6.05091">
        <ele>1140.508</ele>
        <time>2020-04-05T10:55:10Z</time>
      </trkpt>
      <trkpt lat="45.06521" lon="6.05058">
        <ele>1139.797</ele>
        <time>2020-04-05T10:55:30Z</time>
      </trkpt>
      <trkpt lat="45.06495" lon="6.05036">
        <ele>1144.595</ele>
        <time>2020-04-05T10:55:50Z</time>
      </trkpt>
      <trkpt lat="45.0647" lon="6.05032">
        <ele>1146.133</ele>
        <time>2020-04-05T10:56:10Z</time>
      </trkpt>
      <trkpt lat="45.06425" lon="6.05044">
        <ele>1155.857</ele>
        <time>2020-04-05T10:56:30Z</time>
      </trkpt>
      <trkpt lat="45.06395" lon="6.05034">
        <ele>1166.478</ele>
        <time>2020-04-05T10:56:50Z</time>
      </trkpt>
      <trkpt lat="45.06358" lon="6.04994">
        <ele>1169.465</ele>
        <time>2020-04-05T10:57:10Z</time>
      </trkpt>
      <trkpt lat="45.0631" lon="6.04978">
        <ele>1183.959</ele>
        <time>2020-04-05T10:57:30Z</time>
      </trkpt>
      <trkpt lat="45.06279" lon="6.04993">
        <ele>1197.676</ele>
        <time>2020-04-05T10:57:50Z</time>
      </trkpt>
      <trkpt lat="45.06262" lon="6.05011">
        <ele>1200.438</ele>
        <time>2020-04-05T10:58:10Z</time>
      </trkpt>
      <trkpt lat="45.06281" lon="6.05012">
        <ele>1204.67</ele>
        <time>2020-04-05T10:58:30Z</time>
      </trkpt>
      <trkpt lat="45.06263" lon="6.05038">
        <ele>1209.117</ele>
        <time>2020-04-05T10:58:50Z</time>
      </trkpt>
      <trkpt lat="45.06269" lon="6.05052">
        <ele>1215.308</ele>
        <time>2020-04-05T10:59:10Z</time>
      </trkpt>
      <trkpt lat="45.06295" lon="6.05044">
        <ele>1215.869</ele>
        <time>2020-04-05T10:59:30Z</time>
      </trkpt>
      <trkpt lat="45.06307" lon="6.05048">
        <ele>1217.577</ele>
        <time>2020-04-05T10:59:50Z</time>
      </trkpt>
      <trkpt lat="45.06289" lon="6.05073">
        <ele>1227.555</ele>
        <time>2020-04-05T11:00:10Z</time>
      </trkpt>
      <trkpt lat="45.06307" lon="6.051">
        <ele>1239.999</ele>
        <time>2020-04-05T11:00:30Z</time>
      </trkpt>
      <trkpt lat="45.06308" lon="6.05127">
        <ele>1249.45</ele>
        <time>2020-04-05T11:00:50Z</time>
      </trkpt>
      <trkpt lat="45.06318" lon="6.05153">
        <ele>1256.327</ele>
        <time>2020-04-05T11:01:10Z</time>
      </trkpt>
      <trkpt lat="45.06304" lon="6.05149">
        <ele>1257.521</ele>
        <time>2020-04-05T11:01:30Z</time>
      </trkpt>
      <trkpt lat="45.06324" lon="6.05212">
        <ele>1280.458</ele>
        <time>2020-04-05T11:01:50Z</time>
      </trkpt>
      <trkpt lat="45.06384" lon="6.05274">
        <ele>1293.659</ele>
        <time>2020-04-05T11:02:10Z</time>
      </trkpt>
      <trkpt lat="45.06418" lon="6.0529">
        <ele>1298.503</ele>
        <time>2020-04-05T11:02:30Z</time>
      </trkpt>
      <trkpt lat="45.06436" lon="6.05321">
        <ele>1307.123</ele>
        <time>2020-04-05T11:02:50Z</time>
      </trkpt>
      <trkpt lat="45.0641" lon="6.054">
        <ele>1327.208</ele>
        <time>2020-04-05T11:03:10Z</time>
      </trkpt>
      <trkpt lat="45.06407" lon="6.05425">
        <ele>1327.931</ele>
        <time>2020-04-05T11:03:30Z</time>
      </trkpt>
      <trkpt lat="45.06397" lon="6.05446">
        <ele>1337.389</ele>
        <time>2020-04-05T11:03:50Z</time>
      </trkpt>
      <trkpt lat="45.06401" lon="6.05487">
        <ele>1340.317</ele>
        <time>2020-04-05T11:04:10Z</time>
      </trkpt>
      <trkpt lat="45.06429" lon="6.05529">
        <ele>1338.211</ele>
        <time>2020-04-05T11:04:30Z</time>
      </trkpt>
      <trkpt lat="45.06435" lon="6.05558">
        <ele>1338.732</ele>
        <time>2020-04-05T11:04:50Z</time>
      </trkpt>
      <trkpt lat="45.06432" lon="6.05606">
        <ele>1343.779</ele>
        <time>2020-04-05T11:05:10Z</time>
      </trkpt>
      <trkpt lat="45.06417" lon="6.05629">
        <ele>1358.043</ele>
        <time>2020-04-05T11:05:30Z</time>
      </trkpt>
      <trkpt lat="45.06413" lon="6.05657">
        <ele>1363.16</ele>
        <time>2020-04-05T11:05:50Z</time>
      </trkpt>
      <trkpt lat="45.06418" lon="6.05671">
        <ele>1362.887</ele>
        <time>2020-04-05T11:06:10Z</time>
      </trkpt>
      <trkpt lat="45.06452" lon="6.05693">
        <ele>1357.542</ele>
        <time>2020-04-05T11:06:30Z</time>
      </trkpt>
      <trkpt lat="45.06458" lon="6.05714">
        <ele>1362.026</ele>
        <time>2020-04-05T11:06:50Z</time>
      </trkpt>
      <trkpt lat="45.06447" lon="6.05803">
        <ele>1387.908</ele>
        <time>2020-04-05T11:07:10Z</time>
      </trkpt>
      <trkpt lat="45.06456" lon="6.0588">
        <ele>1388.134</ele>
        <time>2020-04-05T11:07:30Z</time>
      </trkpt>
      <trkpt lat="45.06472" lon="6.05961">
        <ele>1390.582</ele>
        <time>2020-04-05T11:07:50Z</time>
      </trkpt>
      <trkpt lat="45.06497" lon="6.06019">
        <ele>1385.36</ele>
        <time>2020-04-05T11:08:10Z</time>
      </trkpt>
      <trkpt lat="45.06491" lon="6.06029">
        <ele>1387.854</ele>
        <time>2020-04-05T11:08:30Z</time>
      </trkpt>
      <trkpt lat="45.06485" lon="6.06026">
        <ele>1389.945</ele>
        <time>2020-04-05T11:08:50Z</time>
      </trkpt>
      <trkpt lat="45.06482" lon="6.06013">
        <ele>1390.152</ele>
        <time>2020-04-05T11:09:10Z</time>
      </trkpt>
      <trkpt lat="45.06462" lon="6.05971">
        <ele>1395.286</ele>
        <time>2020-04-05T11:09:30Z</time>
      </trkpt>
      <trkpt lat="45.06454" lon="6.05976">
        <ele>1399.473</ele>
        <time>2020-04-05T11:09:50Z</time>
      </trkpt>
      <trkpt lat="45.06456" lon="6.05992">
        <ele>1400.266</ele>
        <time>2020-04-05T11:10:10Z</time>
      </trkpt>
      <trkpt lat="45.0647" lon="6.06017">
        <ele>1395.129</ele>
        <time>2020-04-05T11:10:30Z</time>
      </trkpt>
      <trkpt lat="45.06479" lon="6.06061">
        <ele>1393.221</ele>
        <time>2020-04-05T11:10:50Z</time>
      </trkpt>
      <trkpt lat="45.06462" lon="6.06094">
        <ele>1402.108</ele>
        <time>2020-04-05T11:11:10Z</time>
      </trkpt>
      <trkpt lat="45.06462" lon="6.06117">
        <ele>1403.582</ele>
        <time>2020-04-05T11:11:30Z</time>
      </trkpt>
      <trkpt lat="45.06469" lon="6.06127">
        <ele>1403.26</ele>
        <time>2020-04-05T11:11:50Z</time>
      </trkpt>
      <trkpt lat="45.06499" lon="6.06123">
        <ele>1397.898</ele>
        <time>2020-04-05T11:12:10Z</time>
      </trkpt>
      <trkpt lat="45.06555" lon="6.06135">
        <ele>1404.842</ele>
        <time>2020-04-05T11:12:30Z</time>
      </trkpt>
      <trkpt lat="45.06627" lon="6.06129">
        <ele>1411.273</ele>
        <time>2020-04-05T11:12:50Z</time>
      </trkpt>
      <trkpt lat="45.06667" lon="6.06083">
        <ele>1413.05</ele>
        <time>2020-04-05T11:13:10Z</time>
      </trkpt>
      <trkpt lat="45.06752" lon="6.06029">
        <ele>1423.724</ele>
        <time>2020-04-05T11:13:30Z</time>
      </trkpt>
      <trkpt lat="45.06796" lon="6.06014">
        <ele>1431.941</ele>
        <time>2020-04-05T11:13:50Z</time>
      </trkpt>
      <trkpt lat="45.06823" lon="6.06072">
        <ele>1429.328</ele>
        <time>2020-04-05T11:14:10Z</time>
      </trkpt>
      <trkpt lat="45.06781" lon="6.06145">
        <ele>1430.289</ele>
        <time>2020-04-05T11:14:30Z</time>
      </trkpt>
      <trkpt lat="45.06767" lon="6.06199">
        <ele>1435.117</ele>
        <time>2020-04-05T11:14:50Z</time>
      </trkpt>
      <trkpt lat="45.06779" lon="6.06269">
        <ele>1443.708</ele>
        <time>2020-04-05T11:15:10Z</time>
      </trkpt>
      <trkpt lat="45.0677" lon="6.06323">
        <ele>1448.798</ele>
        <time>2020-04-05T11:15:30Z</time>
      </trkpt>
      <trkpt lat="45.0677" lon="6.06381">
        <ele>1454.416</ele>
        <time>2020-04-05T11:15:50Z</time>
      </trkpt>
      <trkpt lat="45.0684" lon="6.06379">
        <ele>1452.754</ele>
        <time>2020-04-05T11:16:10Z</time>
      </trkpt>
      <trkpt lat="45.06869" lon="6.06364">
        <ele>1454.918</ele>
        <time>2020-04-05T11:16:30Z</time>
      </trkpt>
      <trkpt lat="45.0691" lon="6.06362">
        <ele>1458.839</ele>
        <time>2020-04-05T11:16:50Z</time>
      </trkpt>
      <trkpt lat="45.06967" lon="6.06411">
        <ele>1465.836</ele>
        <time>2020-04-05T11:17:10Z</time>
      </trkpt>
      <trkpt lat="45.07119" lon="6.06439">
        <ele>1474.59</ele>
        <time>2020-04-05T11:17:30Z</time>
      </trkpt>
      <trkpt lat="45.07178" lon="6.0643">
        <ele>1476.327</ele>
        <time>2020-04-05T11:17:50Z</time>
      </trkpt>
      <trkpt lat="45.07248" lon="6.06426">
        <ele>1478.158</ele>
        <time>2020-04-05T11:18:10Z</time>
      </trkpt>
      <trkpt lat="45.07288" lon="6.06443">
        <ele>1482.052</ele>
        <time>2020-04-05T11:18:30Z</time>
      </trkpt>
      <trkpt lat="45.07346" lon="6.06417">
        <ele>1484.017</ele>
        <time>2020-04-05T11:18:50Z</time>
      </trkpt>
      <trkpt lat="45.07373" lon="6.06396">
        <ele>1481.308</ele>
        <time>2020-04-05T11:19:10Z</time>
      </trkpt>
      <trkpt lat="45.07429" lon="6.06407">
        <ele>1482.311</ele>
        <time>2020-04-05T11:19:30Z</time>
      </trkpt>
      <trkpt lat="45.07454" lon="6.06362">
        <ele>1481.419</ele>
        <time>2020-04-05T11:19:50Z</time>
      </trkpt>
      <trkpt lat="45.07457" lon="6.06321">
        <ele>1478.367</ele>
        <time>2020-04-05T11:20:10Z</time>
      </trkpt>
      <trkpt lat="45.07484" lon="6.06291">
        <ele>1483.981</ele>
        <time>2020-04-05T11:20:30Z</time>
      </trkpt>
      <trkpt lat="45.07542" lon="6.06308">
        <ele>1496.322</ele>
        <time>2020-04-05T11:20:50Z</time>
      </trkpt>
      <trkpt lat="45.07584" lon="6.06274">
        <ele>1494.379</ele>
        <time>2020-04-05T11:21:10Z</time>
      </trkpt>
      <trkpt lat="45.07678" lon="6.06293">
        <ele>1505.253</ele>
        <time>2020-04-05T11:21:30Z</time>
      </trkpt>
      <trkpt lat="45.07757" lon="6.06329">
        <ele>1508.09</ele>
        <time>2020-04-05T11:21:50Z</time>
      </trkpt>
      <trkpt lat="45.07787" lon="6.0636">
        <ele>1516.069</ele>
        <time>2020-04-05T11:22:10Z</time>
      </trkpt>
      <trkpt lat="45.07872" lon="6.06422">
        <ele>1517.504</ele>
        <time>2020-04-05T11:22:30Z</time>
      </trkpt>
      <trkpt lat="45.07917" lon="6.06426">
        <ele>1511.324</ele>
        <time>2020-04-05T11:22:50Z</time>
      </trkpt>
      <trkpt lat="45.07919" lon="6.06493">
        <ele>1520.108</ele>
        <time>2020-04-05T11:23:10Z</time>
      </trkpt>
      <trkpt lat="45.07926" lon="6.0652">
        <ele>1516.542</ele>
        <time>2020-04-05T11:23:30Z</time>
      </trkpt>
      <trkpt lat="45.07954" lon="6.06574">
        <ele>1505.16</ele>
        <time>2020-04-05T11:23:50Z</time>
      </trkpt>
      <trkpt lat="45.07967" lon="6.06617">
        <ele>1509.858</ele>
        <time>2020-04-05T11:24:10Z</time>
      </trkpt>
      <trkpt lat="45.07978" lon="6.06649">
        <ele>1508.052</ele>
        <time>2020-04-05T11:24:30Z</time>
      </trkpt>
      <trkpt lat="45.08011" lon="6.06678">
        <ele>1474.623</ele>
        <time>2020-04-05T11:24:50Z</time>
      </trkpt>
      <trkpt lat="45.08016" lon="6.06699">
        <ele>1472.78</ele>
        <time>2020-04-05T11:25:10Z</time>
      </trkpt>
      <trkpt lat="45.08023" lon="6.06706">
        <ele>1465.994</ele>
        <time>2020-04-05T11:25:30Z</time>
      </trkpt>
      <trkpt lat="45.08014" lon="6.06726">
        <ele>1478.291</ele>
        <time>2020-04-05T11:25:50Z</time>
      </trkpt>
      <trkpt lat="45.0803" lon="6.06785">
        <ele>1466.669</ele>
        <time>2020-04-05T11:26:10Z</time>
      </trkpt>
      <trkpt lat="45.08037" lon="6.06826">
        <ele>1461.904</ele>
        <time>2020-04-05T11:26:30Z</time>
      </trkpt>
      <trkpt lat="45.08059" lon="6.06835">
        <ele>1443.624</ele>
        <time>2020-04-05T11:26:50Z</time>
      </trkpt>
      <trkpt lat="45.0807" lon="6.06869">
        <ele>1439.008</ele>
        <time>2020-04-05T11:27:10Z</time>
      </trkpt>
      <trkpt lat="45.08074" lon="6.06849">
        <ele>1434.442</ele>
        <time>2020-04-05T11:27:30Z</time>
      </trkpt>
      <trkpt lat="45.0809" lon="6.06874">
        <ele>1427.57</ele>
        <time>2020-04-05T11:27:50Z</time>
      </trkpt>
      <trkpt lat="45.0811" lon="6.06917">
        <ele>1418.698</ele>
        <time>2020-04-05T11:28:10Z</time>
      </trkpt>
      <trkpt lat="45.08137" lon="6.06915">
        <ele>1422.512</ele>
        <time>2020-04-05T11:28:30Z</time>
      </trkpt>
      <trkpt lat="45.08128" lon="6.06993">
        <ele>1427.043</ele>
        <time>2020-04-05T11:28:50Z</time>
      </trkpt>
      <trkpt lat="45.08131" lon="6.0705">
        <ele>1431.19</ele>
        <time>2020-04-05T11:29:10Z</time>
      </trkpt>
      <trkpt lat="45.08144" lon="6.07105">
        <ele>1437.944</ele>
        <time>2020-04-05T11:29:30Z</time>
      </trkpt>
      <trkpt lat="45.08151" lon="6.07159">
        <ele>1441.481</ele>
        <time>2020-04-05T11:29:50Z</time>
      </trkpt>
      <trkpt lat="45.08164" lon="6.07184">
        <ele>1444.636</ele>
        <time>2020-04-05T11:30:10Z</time>
      </trkpt>
      <trkpt lat="45.08169" lon="6.07213">
        <ele>1446.917</ele>
        <time>2020-04-05T11:30:30Z</time>
      </trkpt>
      <trkpt lat="45.08183" lon="6.07249">
        <ele>1451.318</ele>
        <time>2020-04-05T11:30:50Z</time>
      </trkpt>
      <trkpt lat="45.08192" lon="6.07293">
        <ele>1453.108</ele>
        <time>2020-04-05T11:31:10Z</time>
      </trkpt>
      <trkpt lat="45.08203" lon="6.07303">
        <ele>1457.829</ele>
        <time>2020-04-05T11:31:30Z</time>
      </trkpt>
      <trkpt lat="45.08205" lon="6.07332">
        <ele>1459.777</ele>
        <time>2020-04-05T11:31:50Z</time>
      </trkpt>
      <trkpt lat="45.08225" lon="6.07411">
        <ele>1468.935</ele>
        <time>2020-04-05T11:32:10Z</time>
      </trkpt>
      <trkpt lat="45.08204" lon="6.07497">
        <ele>1469.879</ele>
        <time>2020-04-05T11:32:30Z</time>
      </trkpt>
      <trkpt lat="45.08198" lon="6.07544">
        <ele>1475.05</ele>
        <time>2020-04-05T11:32:50Z</time>
      </trkpt>
      <trkpt lat="45.08196" lon="6.07637">
        <ele>1483.877</ele>
        <time>2020-04-05T11:33:10Z</time>
      </trkpt>
      <trkpt lat="45.08189" lon="6.07691">
        <ele>1483.951</ele>
        <time>2020-04-05T11:33:30Z</time>
      </trkpt>
      <trkpt lat="45.0819" lon="6.07756">
        <ele>1489.068</ele>
        <time>2020-04-05T11:33:50Z</time>
      </trkpt>
      <trkpt lat="45.08183" lon="6.07828">
        <ele>1492.881</ele>
        <time>2020-04-05T11:34:10Z</time>
      </trkpt>
      <trkpt lat="45.0819" lon="6.07966">
        <ele>1504.361</ele>
        <time>2020-04-05T11:34:30Z</time>
      </trkpt>
      <trkpt lat="45.08156" lon="6.08171">
        <ele>1512.817</ele>
        <time>2020-04-05T11:34:50Z</time>
      </trkpt>
      <trkpt lat="45.08158" lon="6.08279">
        <ele>1523.008</ele>
        <time>2020-04-05T11:35:10Z</time>
      </trkpt>
      <trkpt lat="45.08154" lon="6.0831">
        <ele>1524.684</ele>
        <time>2020-04-05T11:35:30Z</time>
      </trkpt>
      <trkpt lat="45.08136" lon="6.08335">
        <ele>1521.862</ele>
        <time>2020-04-05T11:35:50Z</time>
      </trkpt>
      <trkpt lat="45.08132" lon="6.08367">
        <ele>1522.87</ele>
        <time>2020-04-05T11:36:10Z</time>
      </trkpt>
      <trkpt lat="45.08148" lon="6.0841">
        <ele>1526.394</ele>
        <time>2020-04-05T11:36:30Z</time>
      </trkpt>
      <trkpt lat="45.08145" lon="6.08461">
        <ele>1528.825</ele>
        <time>2020-04-05T11:36:50Z</time>
      </trkpt>
      <trkpt lat="45.08135" lon="6.08499">
        <ele>1529.662</ele>
        <time>2020-04-05T11:37:10Z</time>
      </trkpt>
      <trkpt lat="45.08133" lon="6.08549">
        <ele>1534.376</ele>
        <time>2020-04-05T11:37:30Z</time>
      </trkpt>
      <trkpt lat="45.08126" lon="6.08579">
        <ele>1536.323</ele>
        <time>2020-04-05T11:37:50Z</time>
      </trkpt>
      <trkpt lat="45.08132" lon="6.08616">
        <ele>1537.578</ele>
        <time>2020-04-05T11:38:10Z</time>
      </trkpt>
      <trkpt lat="45.0813" lon="6.0863">
        <ele>1538.033</ele>
        <time>2020-04-05T11:38:30Z</time>
      </trkpt>
      <trkpt lat="45.08135" lon="6.08678">
        <ele>1542.626</ele>
        <time>2020-04-05T11:38:50Z</time>
      </trkpt>
      <trkpt lat="45.0813" lon="6.087">
        <ele>1545.908</ele>
        <time>2020-04-05T11:39:10Z</time>
      </trkpt>
      <trkpt lat="45.0812" lon="6.08725">
        <ele>1548.463</ele>
        <time>2020-04-05T11:39:30Z</time>
      </trkpt>
      <trkpt lat="45.08098" lon="6.0875">
        <ele>1548.561</ele>
        <time>2020-04-05T11:39:50Z</time>
      </trkpt>
      <trkpt lat="45.08083" lon="6.08785">
        <ele>1549.099</ele>
        <time>2020-04-05T11:40:10Z</time>
      </trkpt>
      <trkpt lat="45.08076" lon="6.08839">
        <ele>1551.933</ele>
        <time>2020-04-05T11:40:30Z</time>
      </trkpt>
      <trkpt lat="45.08064" lon="6.0888">
        <ele>1553.214</ele>
        <time>2020-04-05T11:40:50Z</time>
      </trkpt>
      <trkpt lat="45.08066" lon="6.08941">
        <ele>1556.731</ele>
        <time>2020-04-05T11:41:10Z</time>
      </trkpt>
      <trkpt lat="45.0806" lon="6.08976">
        <ele>1556.725</ele>
        <time>2020-04-05T11:41:30Z</time>
      </trkpt>
      <trkpt lat="45.08058" lon="6.09063">
        <ele>1558.032</ele>
        <time>2020-04-05T11:41:50Z</time>
      </trkpt>
      <trkpt lat="45.08085" lon="6.09134">
        <ele>1564.263</ele>
        <time>2020-04-05T11:42:10Z</time>
      </trkpt>
      <trkpt lat="45.08083" lon="6.09184">
        <ele>1563.644</ele>
        <time>2020-04-05T11:42:30Z</time>
      </trkpt>
      <trkpt lat="45.08069" lon="6.09244">
        <ele>1565.818</ele>
        <time>2020-04-05T11:42:50Z</time>
      </trkpt>
      <trkpt lat="45.08067" lon="6.0929">
        <ele>1567.308</ele>
        <time>2020-04-05T11:43:10Z</time>
      </trkpt>
      <trkpt lat="45.08077" lon="6.09341">
        <ele>1569.142</ele>
        <time>2020-04-05T11:43:30Z</time>
      </trkpt>
      <trkpt lat="45.08083" lon="6.09399">
        <ele>1571.79</ele>
        <time>2020-04-05T11:43:50Z</time>
      </trkpt>
      <trkpt lat="45.081" lon="6.09457">
        <ele>1577.718</ele>
        <time>2020-04-05T11:44:10Z</time>
      </trkpt>
      <trkpt lat="45.0812" lon="6.09478">
        <ele>1581.482</ele>
        <time>2020-04-05T11:44:30Z</time>
      </trkpt>
      <trkpt lat="45.08122" lon="6.0952">
        <ele>1582.793</ele>
        <time>2020-04-05T11:44:50Z</time>
      </trkpt>
      <trkpt lat="45.08128" lon="6.09548">
        <ele>1585.65</ele>
        <time>2020-04-05T11:45:10Z</time>
      </trkpt>
      <trkpt lat="45.08126" lon="6.09575">
        <ele>1587.074</ele>
        <time>2020-04-05T11:45:30Z</time>
      </trkpt>
      <trkpt lat="45.08128" lon="6.09585">
        <ele>1587.981</ele>
        <time>2020-04-05T11:45:50Z</time>
      </trkpt>
      <trkpt lat="45.08128" lon="6.09605">
        <ele>1588.517</ele>
        <time>2020-04-05T11:46:10Z</time>
      </trkpt>
      <trkpt lat="45.0815" lon="6.09679">
        <ele>1592.287</ele>
        <time>2020-04-05T11:46:30Z</time>
      </trkpt>
      <trkpt lat="45.08151" lon="6.09741">
        <ele>1594.615</ele>
        <time>2020-04-05T11:46:50Z</time>
      </trkpt>
      <trkpt lat="45.08136" lon="6.09868">
        <ele>1600.008</ele>
        <time>2020-04-05T11:47:10Z</time>
      </trkpt>
      <trkpt lat="45.08122" lon="6.09897">
        <ele>1602.437</ele>
        <time>2020-04-05T11:47:30Z</time>
      </trkpt>
      <trkpt lat="45.08119" lon="6.09925">
        <ele>1604.375</ele>
        <time>2020-04-05T11:47:50Z</time>
      </trkpt>
      <trkpt lat="45.08122" lon="6.09969">
        <ele>1610.633</ele>
        <time>2020-04-05T11:48:10Z</time>
      </trkpt>
      <trkpt lat="45.08111" lon="6.10011">
        <ele>1611.237</ele>
        <time>2020-04-05T11:48:30Z</time>
      </trkpt>
      <trkpt lat="45.08102" lon="6.10073">
        <ele>1617.478</ele>
        <time>2020-04-05T11:48:50Z</time>
      </trkpt>
      <trkpt lat="45.08089" lon="6.10104">
        <ele>1619.125</ele>
        <time>2020-04-05T11:49:10Z</time>
      </trkpt>
      <trkpt lat="45.08076" lon="6.10126">
        <ele>1621.539</ele>
        <time>2020-04-05T11:49:30Z</time>
      </trkpt>
      <trkpt lat="45.08057" lon="6.10218">
        <ele>1629.896</ele>
        <time>2020-04-05T11:49:50Z</time>
      </trkpt>
      <trkpt lat="45.0805" lon="6.10233">
        <ele>1631.462</ele>
        <time>2020-04-05T11:50:10Z</time>
      </trkpt>
      <trkpt lat="45.08041" lon="6.10263">
        <ele>1634.883</ele>
        <time>2020-04-05T11:50:30Z</time>
      </trkpt>
      <trkpt lat="45.07987" lon="6.10325">
        <ele>1640.611</ele>
        <time>2020-04-05T11:50:50Z</time>
      </trkpt>
      <trkpt lat="45.0796" lon="6.10397">
        <ele>1642.908</ele>
        <time>2020-04-05T11:51:10Z</time>
      </trkpt>
      <trkpt lat="45.07905" lon="6.10462">
        <ele>1645.862</ele>
        <time>2020-04-05T11:51:30Z</time>
      </trkpt>
      <trkpt lat="45.07877" lon="6.10533">
        <ele>1649.48</ele>
        <time>2020-04-05T11:51:50Z</time>
      </trkpt>
      <trkpt lat="45.07837" lon="6.10636">
        <ele>1658.318</ele>
        <time>2020-04-05T11:52:10Z</time>
      </trkpt>
      <trkpt lat="45.07825" lon="6.10717">
        <ele>1666.612</ele>
        <time>2020-04-05T11:52:30Z</time>
      </trkpt>
      <trkpt lat="45.07836" lon="6.10771">
        <ele>1668.963</ele>
        <time>2020-04-05T11:52:50Z</time>
      </trkpt>
      <trkpt lat="45.07871" lon="6.10816">
        <ele>1677.13</ele>
        <time>2020-04-05T11:53:10Z</time>
      </trkpt>
      <trkpt lat="45.07898" lon="6.10876">
        <ele>1678.864</ele>
        <time>2020-04-05T11:53:30Z</time>
      </trkpt>
      <trkpt lat="45.07913" lon="6.10937">
        <ele>1684.421</ele>
        <time>2020-04-05T11:53:50Z</time>
      </trkpt>
      <trkpt lat="45.07905" lon="6.11026">
        <ele>1689.867</ele>
        <time>2020-04-05T11:54:10Z</time>
      </trkpt>
      <trkpt lat="45.07905" lon="6.11106">
        <ele>1694.381</ele>
        <time>2020-04-05T11:54:30Z</time>
      </trkpt>
      <trkpt lat="45.07874" lon="6.1126">
        <ele>1698.519</ele>
        <time>2020-04-05T11:54:50Z</time>
      </trkpt>
      <trkpt lat="45.0787" lon="6.11332">
        <ele>1702.808</ele>
        <time>2020-04-05T11:55:10Z</time>
      </trkpt>
      <trkpt lat="45.07851" lon="6.11457">
        <ele>1707.122</ele>
        <time>2020-04-05T11:55:30Z</time>
      </trkpt>
      <trkpt lat="45.07855" lon="6.11546">
        <ele>1713.79</ele>
        <time>2020-04-05T11:55:50Z</time>
      </trkpt>
      <trkpt lat="45.07846" lon="6.11637">
        <ele>1714.478</ele>
        <time>2020-04-05T11:56:10Z</time>
      </trkpt>
      <trkpt lat="45.0782" lon="6.11735">
        <ele>1721.622</ele>
        <time>2020-04-05T11:56:30Z</time>
      </trkpt>
      <trkpt lat="45.07821" lon="6.11772">
        <ele>1724.413</ele>
        <time>2020-04-05T11:56:50Z</time>
      </trkpt>
      <trkpt lat="45.07808" lon="6.11831">
        <ele>1724.42</ele>
        <time>2020-04-05T11:57:10Z</time>
      </trkpt>
      <trkpt lat="45.07803" lon="6.11898">
        <ele>1727.394</ele>
        <time>2020-04-05T11:57:30Z</time>
      </trkpt>
      <trkpt lat="45.07812" lon="6.11969">
        <ele>1732.551</ele>
        <time>2020-04-05T11:57:50Z</time>
      </trkpt>
      <trkpt lat="45.07813" lon="6.12044">
        <ele>1742.539</ele>
        <time>2020-04-05T11:58:10Z</time>
      </trkpt>
      <trkpt lat="45.07832" lon="6.1208">
        <ele>1742.201</ele>
        <time>2020-04-05T11:58:30Z</time>
      </trkpt>
      <trkpt lat="45.07865" lon="6.1234">
        <ele>1756.621</ele>
        <time>2020-04-05T11:58:50Z</time>
      </trkpt>
      <trkpt lat="45.07908" lon="6.12405">
        <ele>1760.708</ele>
        <time>2020-04-05T11:59:10Z</time>
      </trkpt>
      <trkpt lat="45.07916" lon="6.12472">
        <ele>1767.159</ele>
        <time>2020-04-05T11:59:30Z</time>
      </trkpt>
      <trkpt lat="45.07932" lon="6.12509">
        <ele>1769.447</ele>
        <time>2020-04-05T11:59:50Z</time>
      </trkpt>
      <trkpt lat="45.07944" lon="6.12543">
        <ele>1772.635</ele>
        <time>2020-04-05T12:00:10Z</time>
      </trkpt>
      <trkpt lat="45.07983" lon="6.12587">
        <ele>1774.839</ele>
        <time>2020-04-05T12:00:30Z</time>
      </trkpt>
      <trkpt lat="45.08024" lon="6.12673">
        <ele>1782.33</ele>
        <time>2020-04-05T12:00:50Z</time>
      </trkpt>
      <trkpt lat="45.08056" lon="6.12712">
        <ele>1786.517</ele>
        <time>2020-04-05T12:01:10Z</time>
      </trkpt>
      <trkpt lat="45.08079" lon="6.12759">
        <ele>1791.821</ele>
        <time>2020-04-05T12:01:30Z</time>
      </trkpt>
      <trkpt lat="45.08105" lon="6.12802">
        <ele>1794.188</ele>
        <time>2020-04-05T12:01:50Z</time>
      </trkpt>
      <trkpt lat="45.08132" lon="6.12894">
        <ele>1799.788</ele>
        <time>2020-04-05T12:02:10Z</time>
      </trkpt>
      <trkpt lat="45.08133" lon="6.12973">
        <ele>1806.724</ele>
        <time>2020-04-05T12:02:30Z</time>
      </trkpt>
      <trkpt lat="45.08085" lon="6.13059">
        <ele>1816.926</ele>
        <time>2020-04-05T12:02:50Z</time>
      </trkpt>
      <trkpt lat="45.08081" lon="6.13094">
        <ele>1818.808</ele>
        <time>2020-04-05T12:03:10Z</time>
      </trkpt>
      <trkpt lat="45.0811" lon="6.13156">
        <ele>1820.054</ele>
        <time>2020-04-05T12:03:30Z</time>
      </trkpt>
      <trkpt lat="45.08141" lon="6.13179">
        <ele>1826.062</ele>
        <time>2020-04-05T12:03:50Z</time>
      </trkpt>
      <trkpt lat="45.08099" lon="6.13212">
        <ele>1829.23</ele>
        <time>2020-04-05T12:04:10Z</time>
      </trkpt>
      <trkpt lat="45.08058" lon="6.1321">
        <ele>1832.394</ele>
        <time>2020-04-05T12:04:30Z</time>
      </trkpt>
      <trkpt lat="45.08027" lon="6.13164">
        <ele>1832.115</ele>
        <time>2020-04-05T12:04:50Z</time>
      </trkpt>
      <trkpt lat="45.08009" lon="6.13116">
        <ele>1839.412</ele>
        <time>2020-04-05T12:05:10Z</time>
      </trkpt>
      <trkpt lat="45.08008" lon="6.1309">
        <ele>1842.396</ele>
        <time>2020-04-05T12:05:30Z</time>
      </trkpt>
      <trkpt lat="45.07993" lon="6.13094">
        <ele>1847.183</ele>
        <time>2020-04-05T12:05:50Z</time>
      </trkpt>
      <trkpt lat="45.07969" lon="6.13179">
        <ele>1848.937</ele>
        <time>2020-04-05T12:06:10Z</time>
      </trkpt>
      <trkpt lat="45.0797" lon="6.13259">
        <ele>1854.349</ele>
        <time>2020-04-05T12:06:30Z</time>
      </trkpt>
      <trkpt lat="45.07993" lon="6.13311">
        <ele>1858.113</ele>
        <time>2020-04-05T12:06:50Z</time>
      </trkpt>
      <trkpt lat="45.08064" lon="6.13568">
        <ele>1878.808</ele>
        <time>2020-04-05T12:07:10Z</time>
      </trkpt>
      <trkpt lat="45.08076" lon="6.13742">
        <ele>1892.389</ele>
        <time>2020-04-05T12:07:30Z</time>
      </trkpt>
      <trkpt lat="45.08102" lon="6.13904">
        <ele>1906.017</ele>
        <time>2020-04-05T12:07:50Z</time>
      </trkpt>
      <trkpt lat="45.08171" lon="6.14108">
        <ele>1922.635</ele>
        <time>2020-04-05T12:08:10Z</time>
      </trkpt>
      <trkpt lat="45.08189" lon="6.14202">
        <ele>1933.089</ele>
        <time>2020-04-05T12:08:30Z</time>
      </trkpt>
      <trkpt lat="45.0825" lon="6.14298">
        <ele>1941.05</ele>
        <time>2020-04-05T12:08:50Z</time>
      </trkpt>
      <trkpt lat="45.08277" lon="6.14348">
        <ele>1947.097</ele>
        <time>2020-04-05T12:09:10Z</time>
      </trkpt>
      <trkpt lat="45.08349" lon="6.14454">
        <ele>1958.851</ele>
        <time>2020-04-05T12:09:30Z</time>
      </trkpt>
      <trkpt lat="45.08402" lon="6.14547">
        <ele>1966.358</ele>
        <time>2020-04-05T12:09:50Z</time>
      </trkpt>
      <trkpt lat="45.08517" lon="6.14719">
        <ele>1979.213</ele>
        <time>2020-04-05T12:10:10Z</time>
      </trkpt>
      <trkpt lat="45.0858" lon="6.14776">
        <ele>1984.043</ele>
        <time>2020-04-05T12:10:30Z</time>
      </trkpt>
      <trkpt lat="45.08619" lon="6.14836">
        <ele>1988.207</ele>
        <time>2020-04-05T12:10:50Z</time>
      </trkpt>
      <trkpt lat="45.08674" lon="6.14882">
        <ele>1996.208</ele>
        <time>2020-04-05T12:11:10Z</time>
      </trkpt>
      <trkpt lat="45.08716" lon="6.14904">
        <ele>1999.197</ele>
        <time>2020-04-05T12:11:30Z</time>
      </trkpt>
      <trkpt lat="45.08799" lon="6.14916">
        <ele>1996.085</ele>
        <time>2020-04-05T12:11:50Z</time>
      </trkpt>
      <trkpt lat="45.08872" lon="6.14945">
        <ele>1990.043</ele>
        <time>2020-04-05T12:12:10Z</time>
      </trkpt>
      <trkpt lat="45.08909" lon="6.14913">
        <ele>1989.027</ele>
        <time>2020-04-05T12:12:30Z</time>
      </trkpt>
      <trkpt lat="45.08951" lon="6.14921">
        <ele>1982.488</ele>
        <time>2020-04-05T12:12:50Z</time>
      </trkpt>
      <trkpt lat="45.09024" lon="6.14867">
        <ele>1983.895</ele>
        <time>2020-04-05T12:13:10Z</time>
      </trkpt>
      <trkpt lat="45.09045" lon="6.14869">
        <ele>1980.639</ele>
        <time>2020-04-05T12:13:30Z</time>
      </trkpt>
      <trkpt lat="45.08994" lon="6.14927">
        <ele>1972.646</ele>
        <time>2020-04-05T12:13:50Z</time>
      </trkpt>
      <trkpt lat="45.08996" lon="6.14952">
        <ele>1965.588</ele>
        <time>2020-04-05T12:14:10Z</time>
      </trkpt>
      <trkpt lat="45.09008" lon="6.14945">
        <ele>1961.824</ele>
        <time>2020-04-05T12:14:30Z</time>
      </trkpt>
      <trkpt lat="45.09025" lon="6.14919">
        <ele>1964.226</ele>
        <time>2020-04-05T12:14:50Z</time>
      </trkpt>
      <trkpt lat="45.09093" lon="6.14896">
        <ele>1958.008</ele>
        <time>2020-04-05T12:15:10Z</time>
      </trkpt>
      <trkpt lat="45.09128" lon="6.14921">
        <ele>1953.994</ele>
        <time>2020-04-05T12:15:30Z</time>
      </trkpt>
      <trkpt lat="45.09176" lon="6.14979">
        <ele>1943.872</ele>
        <time>2020-04-05T12:15:50Z</time>
      </trkpt>
      <trkpt lat="45.09125" lon="6.14989">
        <ele>1920.68</ele>
        <time>2020-04-05T12:16:10Z</time>
      </trkpt>
      <trkpt lat="45.09149" lon="6.15035">
        <ele>1911.794</ele>
        <time>2020-04-05T12:16:30Z</time>
      </trkpt>
      <trkpt lat="45.09156" lon="6.15106">
        <ele>1891.475</ele>
        <time>2020-04-05T12:16:50Z</time>
      </trkpt>
      <trkpt lat="45.09178" lon="6.15117">
        <ele>1892.482</ele>
        <time>2020-04-05T12:17:10Z</time>
      </trkpt>
      <trkpt lat="45.09208" lon="6.15125">
        <ele>1891.216</ele>
        <time>2020-04-05T12:17:30Z</time>
      </trkpt>
      <trkpt lat="45.09184" lon="6.15148">
        <ele>1878.753</ele>
        <time>2020-04-05T12:17:50Z</time>
      </trkpt>
      <trkpt lat="45.09198" lon="6.15153">
        <ele>1875.824</ele>
        <time>2020-04-05T12:18:10Z</time>
      </trkpt>
      <trkpt lat="45.09188" lon="6.1516">
        <ele>1872.404</ele>
        <time>2020-04-05T12:18:30Z</time>
      </trkpt>
      <trkpt lat="45.09198" lon="6.15163">
        <ele>1871.214</ele>
        <time>2020-04-05T12:18:50Z</time>
      </trkpt>
      <trkpt lat="45.09185" lon="6.15179">
        <ele>1863.308</ele>
        <time>2020-04-05T12:19:10Z</time>
      </trkpt>
      <trkpt lat="45.09219" lon="6.1519">
        <ele>1858.958</ele>
        <time>2020-04-05T12:19:30Z</time>
      </trkpt>
      <trkpt lat="45.09228" lon="6.15211">
        <ele>1848.766</ele>
        <time>2020-04-05T12:19:50Z</time>
      </trkpt>
      <trkpt lat="45.0926" lon="6.15227">
        <ele>1841.114</ele>
        <time>2020-04-05T12:20:10Z</time>
      </trkpt>
      <trkpt lat="45.09291" lon="6.15259">
        <ele>1826.368</ele>
        <time>2020-04-05T12:20:30Z</time>
      </trkpt>
      <trkpt lat="45.09269" lon="6.15283">
        <ele>1810.549</ele>
        <time>2020-04-05T12:20:50Z</time>
      </trkpt>
      <trkpt lat="45.09233" lon="6.15297">
        <ele>1799.896</ele>
        <time>2020-04-05T12:21:10Z</time>
      </trkpt>
      <trkpt lat="45.09203" lon="6.15296">
        <ele>1794.79</ele>
        <time>2020-04-05T12:21:30Z</time>
      </trkpt>
      <trkpt lat="45.09237" lon="6.15326">
        <ele>1786.127</ele>
        <time>2020-04-05T12:21:50Z</time>
      </trkpt>
      <trkpt lat="45.09216" lon="6.15329">
        <ele>1781.143</ele>
        <time>2020-04-05T12:22:10Z</time>
      </trkpt>
      <trkpt lat="45.09233" lon="6.15346">
        <ele>1776.564</ele>
        <time>2020-04-05T12:22:30Z</time>
      </trkpt>
      <trkpt lat="45.09216" lon="6.15361">
        <ele>1767.01</ele>
        <time>2020-04-05T12:22:50Z</time>
      </trkpt>
      <trkpt lat="45.09197" lon="6.15365">
        <ele>1760.808</ele>
        <time>2020-04-05T12:23:10Z</time>
      </trkpt>
      <trkpt lat="45.09174" lon="6.15377">
        <ele>1751.75</ele>
        <time>2020-04-05T12:23:30Z</time>
      </trkpt>
      <trkpt lat="45.09142" lon="6.15374">
        <ele>1746.868</ele>
        <time>2020-04-05T12:23:50Z</time>
      </trkpt>
      <trkpt lat="45.09199" lon="6.15451">
        <ele>1727.196</ele>
        <time>2020-04-05T12:24:10Z</time>
      </trkpt>
      <trkpt lat="45.09243" lon="6.15484">
        <ele>1721.56</ele>
        <time>2020-04-05T12:24:30Z</time>
      </trkpt>
      <trkpt lat="45.09215" lon="6.15488">
        <ele>1714.041</ele>
        <time>2020-04-05T12:24:50Z</time>
      </trkpt>
      <trkpt lat="45.09185" lon="6.15481">
        <ele>1711.488</ele>
        <time>2020-04-05T12:25:10Z</time>
      </trkpt>
      <trkpt lat="45.09207" lon="6.15514">
        <ele>1701.752</ele>
        <time>2020-04-05T12:25:30Z</time>
      </trkpt>
      <trkpt lat="45.09239" lon="6.1555">
        <ele>1694.919</ele>
        <time>2020-04-05T12:25:50Z</time>
      </trkpt>
      <trkpt lat="45.09243" lon="6.1557">
        <ele>1689.881</ele>
        <time>2020-04-05T12:26:10Z</time>
      </trkpt>
      <trkpt lat="45.09232" lon="6.15608">
        <ele>1676.361</ele>
        <time>2020-04-05T12:26:30Z</time>
      </trkpt>
      <trkpt lat="45.09226" lon="6.15613">
        <ele>1673.417</ele>
        <time>2020-04-05T12:26:50Z</time>
      </trkpt>
      <trkpt lat="45.09222" lon="6.15626">
        <ele>1668.508</ele>
        <time>2020-04-05T12:27:10Z</time>
      </trkpt>
      <trkpt lat="45.09208" lon="6.15643">
        <ele>1660.954</ele>
        <time>2020-04-05T12:27:30Z</time>
      </trkpt>
      <trkpt lat="45.09184" lon="6.15713">
        <ele>1640.692</ele>
        <time>2020-04-05T12:27:50Z</time>
      </trkpt>
      <trkpt lat="45.09154" lon="6.15746">
        <ele>1632.32</ele>
        <time>2020-04-05T12:28:10Z</time>
      </trkpt>
      <trkpt lat="45.09162" lon="6.1576">
        <ele>1629.864</ele>
        <time>2020-04-05T12:28:30Z</time>
      </trkpt>
      <trkpt lat="45.09159" lon="6.15774">
        <ele>1627.175</ele>
        <time>2020-04-05T12:28:50Z</time>
      </trkpt>
      <trkpt lat="45.09173" lon="6.15777">
        <ele>1626.032</ele>
        <time>2020-04-05T12:29:10Z</time>
      </trkpt>
      <trkpt lat="45.09157" lon="6.15817">
        <ele>1617.056</ele>
        <time>2020-04-05T12:29:30Z</time>
      </trkpt>
      <trkpt lat="45.09168" lon="6.15839">
        <ele>1611.233</ele>
        <time>2020-04-05T12:29:50Z</time>
      </trkpt>
      <trkpt lat="45.09165" lon="6.15858">
        <ele>1607.869</ele>
        <time>2020-04-05T12:30:10Z</time>
      </trkpt>
      <trkpt lat="45.09146" lon="6.15864">
        <ele>1609.504</ele>
        <time>2020-04-05T12:30:30Z</time>
      </trkpt>
      <trkpt lat="45.09128" lon="6.15904">
        <ele>1602.724</ele>
        <time>2020-04-05T12:30:50Z</time>
      </trkpt>
      <trkpt lat="45.09141" lon="6.15941">
        <ele>1593.008</ele>
        <time>2020-04-05T12:31:10Z</time>
      </trkpt>
      <trkpt lat="45.09098" lon="6.16064">
        <ele>1563.392</ele>
        <time>2020-04-05T12:31:30Z</time>
      </trkpt>
      <trkpt lat="45.09096" lon="6.16105">
        <ele>1549.44</ele>
        <time>2020-04-05T12:31:50Z</time>
      </trkpt>
      <trkpt lat="45.09058" lon="6.16232">
        <ele>1524.118</ele>
        <time>2020-04-05T12:32:10Z</time>
      </trkpt>
      <trkpt lat="45.09048" lon="6.1625">
        <ele>1520.042</ele>
        <time>2020-04-05T12:32:30Z</time>
      </trkpt>
      <trkpt lat="45.09047" lon="6.16307">
        <ele>1504.313</ele>
        <time>2020-04-05T12:32:50Z</time>
      </trkpt>
      <trkpt lat="45.09036" lon="6.16344">
        <ele>1497.23</ele>
        <time>2020-04-05T12:33:10Z</time>
      </trkpt>
      <trkpt lat="45.09021" lon="6.16376">
        <ele>1491.914</ele>
        <time>2020-04-05T12:33:30Z</time>
      </trkpt>
      <trkpt lat="45.09012" lon="6.16401">
        <ele>1486.721</ele>
        <time>2020-04-05T12:33:50Z</time>
      </trkpt>
      <trkpt lat="45.08975" lon="6.16429">
        <ele>1478.675</ele>
        <time>2020-04-05T12:34:10Z</time>
      </trkpt>
      <trkpt lat="45.08952" lon="6.16429">
        <ele>1473.328</ele>
        <time>2020-04-05T12:34:30Z</time>
      </trkpt>
      <trkpt lat="45.08894" lon="6.16372">
        <ele>1463.72</ele>
        <time>2020-04-05T12:34:50Z</time>
      </trkpt>
      <trkpt lat="45.08862" lon="6.1635">
        <ele>1460.408</ele>
        <time>2020-04-05T12:35:10Z</time>
      </trkpt>
      <trkpt lat="45.08818" lon="6.16339">
        <ele>1453.873</ele>
        <time>2020-04-05T12:35:30Z</time>
      </trkpt>
      <trkpt lat="45.08747" lon="6.16287">
        <ele>1448.821</ele>
        <time>2020-04-05T12:35:50Z</time>
      </trkpt>
      <trkpt lat="45.08724" lon="6.16284">
        <ele>1445.189</ele>
        <time>2020-04-05T12:36:10Z</time>
      </trkpt>
      <trkpt lat="45.08701" lon="6.16298">
        <ele>1441.023</ele>
        <time>2020-04-05T12:36:30Z</time>
      </trkpt>
      <trkpt lat="45.08687" lon="6.16337">
        <ele>1437.074</ele>
        <time>2020-04-05T12:36:50Z</time>
      </trkpt>
      <trkpt lat="45.08665" lon="6.16348">
        <ele>1430.391</ele>
        <time>2020-04-05T12:37:10Z</time>
      </trkpt>
      <trkpt lat="45.08641" lon="6.16341">
        <ele>1423.955</ele>
        <time>2020-04-05T12:37:30Z</time>
      </trkpt>
      <trkpt lat="45.08621" lon="6.16317">
        <ele>1419.822</ele>
        <time>2020-04-05T12:37:50Z</time>
      </trkpt>
      <trkpt lat="45.08581" lon="6.16292">
        <ele>1414.395</ele>
        <time>2020-04-05T12:38:10Z</time>
      </trkpt>
      <trkpt lat="45.08558" lon="6.16294">
        <ele>1412.149</ele>
        <time>2020-04-05T12:38:30Z</time>
      </trkpt>
      <trkpt lat="45.08439" lon="6.16291">
        <ele>1402.923</ele>
        <time>2020-04-05T12:38:50Z</time>
      </trkpt>
      <trkpt lat="45.08414" lon="6.16309">
        <ele>1398.508</ele>
        <time>2020-04-05T12:39:10Z</time>
      </trkpt>
      <trkpt lat="45.08359" lon="6.16279">
        <ele>1397.645</ele>
        <time>2020-04-05T12:39:30Z</time>
      </trkpt>
      <trkpt lat="45.08284" lon="6.16185">
        <ele>1402.243</ele>
        <time>2020-04-05T12:39:50Z</time>
      </trkpt>
      <trkpt lat="45.08249" lon="6.16157">
        <ele>1400.231</ele>
        <time>2020-04-05T12:40:10Z</time>
      </trkpt>
      <trkpt lat="45.08244" lon="6.16133">
        <ele>1403.465</ele>
        <time>2020-04-05T12:40:30Z</time>
      </trkpt>
      <trkpt lat="45.08188" lon="6.16087">
        <ele>1403.736</ele>
        <time>2020-04-05T12:40:50Z</time>
      </trkpt>
      <trkpt lat="45.08163" lon="6.1604">
        <ele>1406.513</ele>
        <time>2020-04-05T12:41:10Z</time>
      </trkpt>
      <trkpt lat="45.08121" lon="6.15946">
        <ele>1412.047</ele>
        <time>2020-04-05T12:41:30Z</time>
      </trkpt>
      <trkpt lat="45.08062" lon="6.15924">
        <ele>1409.974</ele>
        <time>2020-04-05T12:41:50Z</time>
      </trkpt>
      <trkpt lat="45.07924" lon="6.15796">
        <ele>1417.949</ele>
        <time>2020-04-05T12:42:10Z</time>
      </trkpt>
      <trkpt lat="45.07881" lon="6.15781">
        <ele>1414.502</ele>
        <time>2020-04-05T12:42:30Z</time>
      </trkpt>
      <trkpt lat="45.07833" lon="6.15746">
        <ele>1412.722</ele>
        <time>2020-04-05T12:42:50Z</time>
      </trkpt>
      <trkpt lat="45.07798" lon="6.15735">
        <ele>1409.508</ele>
        <time>2020-04-05T12:43:10Z</time>
      </trkpt>
      <trkpt lat="45.07707" lon="6.15761">
        <ele>1399.02</ele>
        <time>2020-04-05T12:43:30Z</time>
      </trkpt>
      <trkpt lat="45.07622" lon="6.15741">
        <ele>1405.178</ele>
        <time>2020-04-05T12:43:50Z</time>
      </trkpt>
      <trkpt lat="45.07571" lon="6.15713">
        <ele>1409.436</ele>
        <time>2020-04-05T12:44:10Z</time>
      </trkpt>
      <trkpt lat="45.07541" lon="6.15718">
        <ele>1408.34</ele>
        <time>2020-04-05T12:44:30Z</time>
      </trkpt>
      <trkpt lat="45.07502" lon="6.15749">
        <ele>1403.181</ele>
        <time>2020-04-05T12:44:50Z</time>
      </trkpt>
      <trkpt lat="45.07471" lon="6.15749">
        <ele>1400.838</ele>
        <time>2020-04-05T12:45:10Z</time>
      </trkpt>
      <trkpt lat="45.07365" lon="6.15671">
        <ele>1386.842</ele>
        <time>2020-04-05T12:45:30Z</time>
      </trkpt>
      <trkpt lat="45.0731" lon="6.15678">
        <ele>1375.539</ele>
        <time>2020-04-05T12:45:50Z</time>
      </trkpt>
      <trkpt lat="45.0719" lon="6.15584">
        <ele>1366.662</ele>
        <time>2020-04-05T12:46:10Z</time>
      </trkpt>
      <trkpt lat="45.07155" lon="6.15542">
        <ele>1361.783</ele>
        <time>2020-04-05T12:46:30Z</time>
      </trkpt>
      <trkpt lat="45.07148" lon="6.1552">
        <ele>1363.111</ele>
        <time>2020-04-05T12:46:50Z</time>
      </trkpt>
      <trkpt lat="45.07132" lon="6.15512">
        <ele>1362.208</ele>
        <time>2020-04-05T12:47:10Z</time>
      </trkpt>
      <trkpt lat="45.07112" lon="6.15508">
        <ele>1361.272</ele>
        <time>2020-04-05T12:47:30Z</time>
      </trkpt>
      <trkpt lat="45.07102" lon="6.15515">
        <ele>1358.78</ele>
        <time>2020-04-05T12:47:50Z</time>
      </trkpt>
      <trkpt lat="45.07095" lon="6.15541">
        <ele>1353.778</ele>
        <time>2020-04-05T12:48:10Z</time>
      </trkpt>
      <trkpt lat="45.07108" lon="6.15558">
        <ele>1352.762</ele>
        <time>2020-04-05T12:48:30Z</time>
      </trkpt>
      <trkpt lat="45.07118" lon="6.15586">
        <ele>1347.333</ele>
        <time>2020-04-05T12:48:50Z</time>
      </trkpt>
      <trkpt lat="45.07111" lon="6.15595">
        <ele>1342.67</ele>
        <time>2020-04-05T12:49:10Z</time>
      </trkpt>
      <trkpt lat="45.07061" lon="6.15579">
        <ele>1338.284</ele>
        <time>2020-04-05T12:49:30Z</time>
      </trkpt>
      <trkpt lat="45.07054" lon="6.15564">
        <ele>1341.321</ele>
        <time>2020-04-05T12:49:50Z</time>
      </trkpt>
      <trkpt lat="45.07041" lon="6.15565">
        <ele>1338.611</ele>
        <time>2020-04-05T12:50:10Z</time>
      </trkpt>
      <trkpt lat="45.07014" lon="6.15558">
        <ele>1333.721</ele>
        <time>2020-04-05T12:50:30Z</time>
      </trkpt>
      <trkpt lat="45.07003" lon="6.15545">
        <ele>1334.103</ele>
        <time>2020-04-05T12:50:50Z</time>
      </trkpt>
      <trkpt lat="45.06987" lon="6.15541">
        <ele>1330.608</ele>
        <time>2020-04-05T12:51:10Z</time>
      </trkpt>
      <trkpt lat="45.06979" lon="6.15556">
        <ele>1323.877</ele>
        <time>2020-04-05T12:51:30Z</time>
      </trkpt>
      <trkpt lat="45.06981" lon="6.15591">
        <ele>1316.975</ele>
        <time>2020-04-05T12:51:50Z</time>
      </trkpt>
      <trkpt lat="45.06975" lon="6.15617">
        <ele>1310.213</ele>
        <time>2020-04-05T12:52:10Z</time>
      </trkpt>
      <trkpt lat="45.06949" lon="6.15627">
        <ele>1301.527</ele>
        <time>2020-04-05T12:52:30Z</time>
      </trkpt>
      <trkpt lat="45.06924" lon="6.1564">
        <ele>1291.248</ele>
        <time>2020-04-05T12:52:50Z</time>
      </trkpt>
      <trkpt lat="45.06908" lon="6.15638">
        <ele>1286.045</ele>
        <time>2020-04-05T12:53:10Z</time>
      </trkpt>
      <trkpt lat="45.06868" lon="6.15618">
        <ele>1277.689</ele>
        <time>2020-04-05T12:53:30Z</time>
      </trkpt>
      <trkpt lat="45.06836" lon="6.15586">
        <ele>1274.696</ele>
        <time>2020-04-05T12:53:50Z</time>
      </trkpt>
      <trkpt lat="45.06847" lon="6.15614">
        <ele>1272.777</ele>
        <time>2020-04-05T12:54:10Z</time>
      </trkpt>
      <trkpt lat="45.06876" lon="6.15647">
        <ele>1272.761</ele>
        <time>2020-04-05T12:54:30Z</time>
      </trkpt>
      <trkpt lat="45.06903" lon="6.15661">
        <ele>1277.627</ele>
        <time>2020-04-05T12:54:50Z</time>
      </trkpt>
      <trkpt lat="45.0691" lon="6.15678">
        <ele>1275.008</ele>
        <time>2020-04-05T12:55:10Z</time>
      </trkpt>
      <trkpt lat="45.06899" lon="6.15752">
        <ele>1279.193</ele>
        <time>2020-04-05T12:55:30Z</time>
      </trkpt>
      <trkpt lat="45.06913" lon="6.15719">
        <ele>1273.961</ele>
        <time>2020-04-05T12:55:50Z</time>
      </trkpt>
      <trkpt lat="45.06929" lon="6.15722">
        <ele>1273.729</ele>
        <time>2020-04-05T12:56:10Z</time>
      </trkpt>
      <trkpt lat="45.06923" lon="6.15733">
        <ele>1280.323</ele>
        <time>2020-04-05T12:56:30Z</time>
      </trkpt>
      <trkpt lat="45.06938" lon="6.15733">
        <ele>1278.624</ele>
        <time>2020-04-05T12:56:50Z</time>
      </trkpt>
      <trkpt lat="45.06929" lon="6.15746">
        <ele>1287.291</ele>
        <time>2020-04-05T12:57:10Z</time>
      </trkpt>
      <trkpt lat="45.06942" lon="6.15746">
        <ele>1286.125</ele>
        <time>2020-04-05T12:57:30Z</time>
      </trkpt>
      <trkpt lat="45.06946" lon="6.15766">
        <ele>1297.372</ele>
        <time>2020-04-05T12:57:50Z</time>
      </trkpt>
      <trkpt lat="45.06972" lon="6.15778">
        <ele>1297.913</ele>
        <time>2020-04-05T12:58:10Z</time>
      </trkpt>
      <trkpt lat="45.06975" lon="6.15788">
        <ele>1303.743</ele>
        <time>2020-04-05T12:58:30Z</time>
      </trkpt>
      <trkpt lat="45.06986" lon="6.15788">
        <ele>1301.707</ele>
        <time>2020-04-05T12:58:50Z</time>
      </trkpt>
      <trkpt lat="45.06998" lon="6.15806">
        <ele>1314.208</ele>
        <time>2020-04-05T12:59:10Z</time>
      </trkpt>
      <trkpt lat="45.07029" lon="6.15881">
        <ele>1352.667</ele>
        <time>2020-04-05T12:59:30Z</time>
      </trkpt>
      <trkpt lat="45.07053" lon="6.15908">
        <ele>1363.335</ele>
        <time>2020-04-05T12:59:50Z</time>
      </trkpt>
      <trkpt lat="45.07075" lon="6.15911">
        <ele>1359.843</ele>
        <time>2020-04-05T13:00:10Z</time>
      </trkpt>
      <trkpt lat="45.07078" lon="6.15945">
        <ele>1386.177</ele>
        <time>2020-04-05T13:00:30Z</time>
      </trkpt>
      <trkpt lat="45.07072" lon="6.15982">
        <ele>1399.748</ele>
        <time>2020-04-05T13:00:50Z</time>
      </trkpt>
      <trkpt lat="45.07077" lon="6.16032">
        <ele>1414.315</ele>
        <time>2020-04-05T13:01:10Z</time>
      </trkpt>
      <trkpt lat="45.07079" lon="6.16087">
        <ele>1426.919</ele>
        <time>2020-04-05T13:01:30Z</time>
      </trkpt>
      <trkpt lat="45.07099" lon="6.16148">
        <ele>1443.256</ele>
        <time>2020-04-05T13:01:50Z</time>
      </trkpt>
      <trkpt lat="45.07098" lon="6.16169">
        <ele>1444.945</ele>
        <time>2020-04-05T13:02:10Z</time>
      </trkpt>
      <trkpt lat="45.07109" lon="6.16201">
        <ele>1452.147</ele>
        <time>2020-04-05T13:02:30Z</time>
      </trkpt>
      <trkpt lat="45.07104" lon="6.16296">
        <ele>1459.311</ele>
        <time>2020-04-05T13:02:50Z</time>
      </trkpt>
      <trkpt lat="45.07111" lon="6.16316">
        <ele>1462.708</ele>
        <time>2020-04-05T13:03:10Z</time>
      </trkpt>
      <trkpt lat="45.07116" lon="6.16385">
        <ele>1470.99</ele>
        <time>2020-04-05T13:03:30Z</time>
      </trkpt>
      <trkpt lat="45.07106" lon="6.1641">
        <ele>1471.028</ele>
        <time>2020-04-05T13:03:50Z</time>
      </trkpt>
      <trkpt lat="45.07109" lon="6.16474">
        <ele>1473.616</ele>
        <time>2020-04-05T13:04:10Z</time>
      </trkpt>
      <trkpt lat="45.07129" lon="6.16504">
        <ele>1478.11</ele>
        <time>2020-04-05T13:04:30Z</time>
      </trkpt>
      <trkpt lat="45.07152" lon="6.16554">
        <ele>1486.661</ele>
        <time>2020-04-05T13:04:50Z</time>
      </trkpt>
      <trkpt lat="45.07137" lon="6.16584">
        <ele>1484.928</ele>
        <time>2020-04-05T13:05:10Z</time>
      </trkpt>
      <trkpt lat="45.07131" lon="6.16752">
        <ele>1512.252</ele>
        <time>2020-04-05T13:05:30Z</time>
      </trkpt>
      <trkpt lat="45.07111" lon="6.16822">
        <ele>1520.419</ele>
        <time>2020-04-05T13:05:50Z</time>
      </trkpt>
      <trkpt lat="45.07102" lon="6.16875">
        <ele>1526.612</ele>
        <time>2020-04-05T13:06:10Z</time>
      </trkpt>
      <trkpt lat="45.07096" lon="6.16885">
        <ele>1527.332</ele>
        <time>2020-04-05T13:06:30Z</time>
      </trkpt>
    </trkseg>
  </trk>
</gpx>